Saturday, July 21, 2018, 2:27 AM CDT
Back to Local

KGUY, Guymon Municipal Airport

Location: Guymon, OK, United States Lat: 36.683
Local Time: 2:27 AM CDT ( 7:27 GMT) Lon: -101.5
Time Zone: US/Central Elev: 3123 ft

Show me the last for .
Show Decoded

2018-07-21 01:53 METAR KGUY 210653Z AUTO 17003KT 10SM CLR 24/15 A3005 RMK AO2 SLP113 T02440150 =
2018-07-21 00:53 METAR KGUY 210553Z AUTO 05008KT 10SM CLR 27/14 A3006 RMK AO2 PK WND 06032/0501
                 SLP117 T02670139 10406 20267 404330172 53014 =
2018-07-20 23:53 METAR KGUY 210453Z AUTO 06022G27KT 10SM CLR 30/12 A3004 RMK AO2 PK WND
                 06027/0452 WSHFT 0416 SLP107 T03000122 =
2018-07-20 23:36 METAR KGUY 210436Z AUTO 05011G18KT 10SM CLR 30/13 A3004 RMK AO2 WSHFT 0416 LTG
                 DSNT N-SE T03000128 =
2018-07-20 22:53 METAR KGUY 210353Z AUTO 02019G26KT 10SM CLR 31/11 A3001 RMK AO2 PK WND
                 36026/0349 WSHFT 0331 LTG DSNT NE SLP101 T03110111 =
2018-07-20 22:51 METAR KGUY 210351Z AUTO 02019G26KT 10SM CLR 31/11 A3001 RMK AO2 PK WND
                 36026/0349 WSHFT 0331 LTG DSNT N =
2018-07-20 21:53 METAR KGUY 210253Z AUTO VRB03KT 10SM CLR 35/08 A2994 RMK AO2 LTG DSNT N SLP078
                 T03500083 53024 =
2018-07-20 20:53 METAR KGUY 210153Z AUTO 35007KT 10SM CLR 36/10 A2991 RMK AO2 SLP070 T03560100 =
2018-07-20 19:53 METAR KGUY 210053Z AUTO 21011KT 10SM CLR 38/10 A2986 RMK AO2 SLP055 T03780100 =
2018-07-20 18:53 METAR KGUY 202353Z AUTO 21014KT 10SM CLR 41/09 A2986 RMK AO2 LTG DSNT N SLP055
                 T04060094 10433 20400 56007 =
2018-07-20 17:53 METAR KGUY 202253Z AUTO 20015G23KT 10SM CLR 42/09 A2987 RMK AO2 SLP053 T04170089
                 =
2018-07-20 16:53 METAR KGUY 202153Z AUTO 21019G27KT 10SM CLR 43/08 A2987 RMK AO2 PK WND
                 21027/2153 SLP055 T04280083 =
2018-07-20 15:53 METAR KGUY 202053Z AUTO 20016G21KT 10SM CLR 43/09 A2989 RMK AO2 SLP059 T04280094
                 56013 =
2018-07-20 14:53 METAR KGUY 201953Z AUTO 21018KT 10SM CLR 43/10 A2990 RMK AO2 PK WND 22026/1855
                 SLP062 T04280100 =
2018-07-20 13:53 METAR KGUY 201853Z AUTO 22020KT 10SM CLR 42/10 A2991 RMK AO2 PK WND 23027/1828
                 SLP067 T04220100 =
2018-07-20 12:53 METAR KGUY 201753Z AUTO 23018KT 10SM CLR 40/12 A2993 RMK AO2 PK WND 22026/1733
                 SLP075 T04000117 10400 20172 56007 =
2018-07-20 11:53 METAR KGUY 201653Z AUTO 23020KT 10SM CLR 38/11 A2993 RMK AO2 PK WND 22026/1619
                 SLP078 T03830106 =
2018-07-20 10:53 METAR KGUY 201553Z AUTO 23016KT 10SM CLR 36/12 A2993 RMK AO2 SLP079 T03610117 =
2018-07-20 09:53 METAR KGUY 201453Z AUTO 23011KT 10SM CLR 29/14 A2995 RMK AO2 SLP089 T02940139
                 50003 =
2018-07-20 08:53 METAR KGUY 201353Z AUTO 22008KT 10SM CLR 26/14 A2996 RMK AO2 SLP091 T02560144 =
2018-07-20 07:53 METAR KGUY 201253Z AUTO 00000KT 10SM CLR 21/17 A2995 RMK AO2 SLP093 T02110167 =
2018-07-20 06:53 METAR KGUY 201153Z AUTO 21004KT 10SM CLR 18/14 A2994 RMK AO2 SLP093 70004
                 T01780139 10233 20172 50004 =
2018-07-20 05:53 METAR KGUY 201053Z AUTO 00000KT 10SM CLR 20/14 A2994 RMK AO2 SLP094 T02000144 =
2018-07-20 04:53 METAR KGUY 200953Z AUTO 02003KT 10SM CLR 20/14 A2995 RMK AO2 SLP086 T02000144 =
2018-07-20 03:53 METAR KGUY 200853Z AUTO 00000KT 10SM CLR 21/14 A2993 RMK AO2 SLP074 T02110144
                 53002 =
2018-07-20 02:53 METAR KGUY 200753Z AUTO 25004KT 10SM CLR 23/14 A2992 RMK AO2 SLP070 T02280144 =

Support USWX by starting your Amazon purchase here.